الصفحة الرئيسية
METAR-TAF:

METAR-TAF

مطار :

Show Low, أريزونا, الولايات المتحدة

دائرة عرض: 34-16N, خط طول: 110-00W, ارتفاع: 1954 متر

مراقبة الطقس الحالي

تاريخ ووقت الإصدار 20 دقيقة قبل الساعة 04:55UTC
ريح 4 عقدة من الشمال الشرقي
درجة الحرارة -5°درجة مئوية
الرطوبة 49%
ضغط 1029 hPa
الرؤية: 16.1 كم
سماء صافية

METAR: KSOW 140455Z AUTO 04004KT 10SM CLR M05/M14 A3039 RMK AO2

زمن: 22:15 (05:15 UTC)


TAF: مفقودة

أرصاد الطقس والتوقعات من أكثر من 4000 مطار (تقارير الطقس للمطار METAR والتنبؤ بالطقس بالمطارTAF).

المحطات المتاحة هي النقط الصفراء والحمراء على الخريطة.

حرك المؤشر فوق النقطة لمعرفة اسم المحطة.

ثم انقر لمعرفة أرصاد وتوقعات الطقس.

لتغيير الخارطة: اضغط على الأزرار الخضراء مع رمز الصليب الأسود للتكبير. على الزر الأخضر مع شرطة للتصغير، أو على الأسهم الخضراء للخرائط المجاورة.


METAR-TAF: